sensor_id;sensor_type;location;lat;lon;timestamp;pressure;altitude;pressure_sealevel;temperature;humidity
55410;BME280;41279;43.546;16.426;2022-07-23T00:02:20;62742.25;;;-146.77;100.00
55410;BME280;41279;43.546;16.426;2022-07-23T00:04:46;63497.06;;;-146.77;100.00
55410;BME280;41279;43.546;16.426;2022-07-23T00:07:11;69701.44;;;-146.77;100.00
55410;BME280;41279;43.546;16.426;2022-07-23T00:09:36;70606.41;;;-146.77;100.00
55410;BME280;41279;43.546;16.426;2022-07-23T00:12:02;71398.91;;;-146.77;100.00
55410;BME280;41279;43.546;16.426;2022-07-23T00:14:27;67222.94;;;-146.77;100.00
55410;BME280;41279;43.546;16.426;2022-07-23T00:16:53;62930.94;;;-146.77;100.00
55410;BME280;41279;43.546;16.426;2022-07-23T00:19:24;59319.34;;;-146.77;100.00
55410;BME280;41279;43.546;16.426;2022-07-23T00:21:50;58084.13;;;-146.77;100.00
55410;BME280;41279;43.546;16.426;2022-07-23T00:24:15;57887.66;;;-146.77;100.00
55410;BME280;41279;43.546;16.426;2022-07-23T00:26:41;57304.31;;;-146.77;100.00
55410;BME280;41279;43.546;16.426;2022-07-23T00:29:06;56921.47;;;-146.77;100.00
55410;BME280;41279;43.546;16.426;2022-07-23T00:31:31;57294.28;;;-146.77;100.00
55410;BME280;41279;43.546;16.426;2022-07-23T00:33:57;56953.53;;;-146.77;100.00
55410;BME280;41279;43.546;16.426;2022-07-23T00:36:23;57600.97;;;-146.77;100.00
55410;BME280;41279;43.546;16.426;2022-07-23T00:38:49;57502.75;;;-146.77;100.00
55410;BME280;41279;43.546;16.426;2022-07-23T00:41:15;56646.88;;;-146.77;100.00
55410;BME280;41279;43.546;16.426;2022-07-23T00:43:42;56705.00;;;-146.77;100.00
55410;BME280;41279;43.546;16.426;2022-07-23T00:46:07;56614.81;;;-146.77;100.00
55410;BME280;41279;43.546;16.426;2022-07-23T00:48:33;56656.91;;;-146.77;100.00
55410;BME280;41279;43.546;16.426;2022-07-23T00:50:58;56272.13;;;-146.77;100.00
55410;BME280;41279;43.546;16.426;2022-07-23T00:53:24;56853.31;;;-146.77;100.00
55410;BME280;41279;43.546;16.426;2022-07-23T00:55:57;55809.22;;;-146.77;100.00
55410;BME280;41279;43.546;16.426;2022-07-23T00:58:23;55831.25;;;-146.77;100.00
55410;BME280;41279;43.546;16.426;2022-07-23T01:00:49;55578.81;;;-146.77;100.00
55410;BME280;41279;43.546;16.426;2022-07-23T01:03:14;55899.41;;;-146.77;100.00
55410;BME280;41279;43.546;16.426;2022-07-23T01:05:40;56051.69;;;-146.77;100.00
55410;BME280;41279;43.546;16.426;2022-07-23T01:08:05;58406.94;;;-146.77;100.00
55410;BME280;41279;43.546;16.426;2022-07-23T01:10:31;60528.88;;;-146.77;100.00
55410;BME280;41279;43.546;16.426;2022-07-23T01:13:07;89722.28;;;-146.77;100.00
55410;BME280;41279;43.546;16.426;2022-07-23T01:15:35;92050.94;;;-146.77;100.00
55410;BME280;41279;43.546;16.426;2022-07-23T01:18:02;94380.94;;;-146.77;100.00
55410;BME280;41279;43.546;16.426;2022-07-23T01:20:28;94898.91;;;-146.77;100.00
55410;BME280;41279;43.546;16.426;2022-07-23T01:22:54;97230.53;;;-146.77;100.00
55410;BME280;41279;43.546;16.426;2022-07-23T01:25:20;89205.00;;;-146.77;100.00
55410;BME280;41279;43.546;16.426;2022-07-23T01:27:45;63950.81;;;-146.77;100.00
55410;BME280;41279;43.546;16.426;2022-07-23T01:30:11;58192.41;;;-146.77;100.00
55410;BME280;41279;43.546;16.426;2022-07-23T01:32:37;59156.91;;;-146.77;100.00
55410;BME280;41279;43.546;16.426;2022-07-23T01:35:04;63535.19;;;-146.77;100.00
55410;BME280;41279;43.546;16.426;2022-07-23T01:37:29;63222.00;;;-146.77;100.00
55410;BME280;41279;43.546;16.426;2022-07-23T01:39:55;67042.09;;;-146.77;100.00
55410;BME280;41279;43.546;16.426;2022-07-23T01:42:20;64266.03;;;-146.77;100.00
55410;BME280;41279;43.546;16.426;2022-07-23T01:44:46;62692.06;;;-146.77;100.00
55410;BME280;41279;43.546;16.426;2022-07-23T01:47:11;59620.19;;;-146.77;100.00
55410;BME280;41279;43.546;16.426;2022-07-23T01:49:36;60597.06;;;-146.77;100.00
55410;BME280;41279;43.546;16.426;2022-07-23T01:52:02;61534.06;;;-146.77;100.00
55410;BME280;41279;43.546;16.426;2022-07-23T01:54:29;58276.63;;;-146.77;100.00
55410;BME280;41279;43.546;16.426;2022-07-23T01:56:55;56448.47;;;-146.77;100.00
55410;BME280;41279;43.546;16.426;2022-07-23T01:59:21;56183.94;;;-146.77;100.00
55410;BME280;41279;43.546;16.426;2022-07-23T02:01:47;56538.66;;;-146.77;100.00
55410;BME280;41279;43.546;16.426;2022-07-23T02:04:13;56434.44;;;-146.77;100.00
55410;BME280;41279;43.546;16.426;2022-07-23T02:06:39;56141.88;;;-146.77;100.00
55410;BME280;41279;43.546;16.426;2022-07-23T02:09:04;56117.81;;;-146.77;100.00
55410;BME280;41279;43.546;16.426;2022-07-23T02:11:29;56119.81;;;-146.77;100.00
55410;BME280;41279;43.546;16.426;2022-07-23T02:13:55;56035.66;;;-146.77;100.00
55410;BME280;41279;43.546;16.426;2022-07-23T02:16:20;55598.84;;;-146.77;100.00
55410;BME280;41279;43.546;16.426;2022-07-23T02:18:46;55542.72;;;-146.77;100.00
55410;BME280;41279;43.546;16.426;2022-07-23T02:21:12;55456.56;;;-146.77;100.00
55410;BME280;41279;43.546;16.426;2022-07-23T02:23:37;55598.84;;;-146.77;100.00
55410;BME280;41279;43.546;16.426;2022-07-23T02:26:02;55777.16;;;-146.77;100.00
55410;BME280;41279;43.546;16.426;2022-07-23T02:28:28;55727.06;;;-146.77;100.00
55410;BME280;41279;43.546;16.426;2022-07-23T02:30:53;56017.63;;;-146.77;100.00
55410;BME280;41279;43.546;16.426;2022-07-23T02:33:18;56324.22;;;-146.77;100.00
55410;BME280;41279;43.546;16.426;2022-07-23T02:35:44;56486.56;;;-146.77;100.00
55410;BME280;41279;43.546;16.426;2022-07-23T02:38:09;56504.59;;;-146.77;100.00
55410;BME280;41279;43.546;16.426;2022-07-23T02:40:35;55963.53;;;-146.77;100.00
55410;BME280;41279;43.546;16.426;2022-07-23T02:43:00;56496.56;;;-146.77;100.00
55410;BME280;41279;43.546;16.426;2022-07-23T02:45:25;56364.31;;;-146.77;100.00
55410;BME280;41279;43.546;16.426;2022-07-23T02:47:51;56019.63;;;-146.77;100.00
55410;BME280;41279;43.546;16.426;2022-07-23T02:50:16;56322.22;;;-146.77;100.00
55410;BME280;41279;43.546;16.426;2022-07-23T02:52:42;58232.50;;;-146.77;100.00
55410;BME280;41279;43.546;16.426;2022-07-23T02:55:07;56879.38;;;-146.77;100.00
55410;BME280;41279;43.546;16.426;2022-07-23T02:57:33;57226.13;;;-146.77;100.00
55410;BME280;41279;43.546;16.426;2022-07-23T02:59:58;58340.78;;;-146.77;100.00
55410;BME280;41279;43.546;16.426;2022-07-23T03:02:24;55781.16;;;-146.77;100.00
55410;BME280;41279;43.546;16.426;2022-07-23T03:04:50;57434.59;;;-146.77;100.00
55410;BME280;41279;43.546;16.426;2022-07-23T03:07:18;59062.66;;;-146.77;100.00
55410;BME280;41279;43.546;16.426;2022-07-23T03:09:44;54981.75;;;-146.77;100.00
55410;BME280;41279;43.546;16.426;2022-07-23T03:12:09;54697.28;;;-146.77;100.00
55410;BME280;41279;43.546;16.426;2022-07-23T03:14:34;54603.16;;;-146.77;100.00
55410;BME280;41279;43.546;16.426;2022-07-23T03:17:00;54499.00;;;-146.77;100.00
55410;BME280;41279;43.546;16.426;2022-07-23T03:19:26;54442.91;;;-146.77;100.00
55410;BME280;41279;43.546;16.426;2022-07-23T03:21:51;54977.75;;;-146.77;100.00
55410;BME280;41279;43.546;16.426;2022-07-23T03:24:17;54725.34;;;-146.77;100.00
55410;BME280;41279;43.546;16.426;2022-07-23T03:26:43;54515.00;;;-146.77;100.00
55410;BME280;41279;43.546;16.426;2022-07-23T03:29:09;54507.00;;;-146.77;100.00
55410;BME280;41279;43.546;16.426;2022-07-23T03:31:34;54420.88;;;-146.77;100.00
55410;BME280;41279;43.546;16.426;2022-07-23T03:34:00;54424.88;;;-146.77;100.00
55410;BME280;41279;43.546;16.426;2022-07-23T03:36:26;54501.00;;;-146.77;100.00
55410;BME280;41279;43.546;16.426;2022-07-23T03:38:52;54641.22;;;-146.77;100.00
55410;BME280;41279;43.546;16.426;2022-07-23T03:41:18;54627.19;;;-146.77;100.00
55410;BME280;41279;43.546;16.426;2022-07-23T03:43:44;54613.16;;;-146.77;100.00
55410;BME280;41279;43.546;16.426;2022-07-23T03:46:09;54687.28;;;-146.77;100.00
55410;BME280;41279;43.546;16.426;2022-07-23T03:48:35;54749.38;;;-146.77;100.00
55410;BME280;41279;43.546;16.426;2022-07-23T03:51:00;55358.41;;;-146.77;100.00
55410;BME280;41279;43.546;16.426;2022-07-23T03:53:25;54687.28;;;-146.77;100.00
55410;BME280;41279;43.546;16.426;2022-07-23T03:55:51;54725.34;;;-146.77;100.00
55410;BME280;41279;43.546;16.426;2022-07-23T03:58:16;55903.41;;;-146.77;100.00
55410;BME280;41279;43.546;16.426;2022-07-23T04:00:42;55899.41;;;-146.77;100.00
55410;BME280;41279;43.546;16.426;2022-07-23T04:03:07;56284.16;;;-146.77;100.00
55410;BME280;41279;43.546;16.426;2022-07-23T04:05:32;56610.81;;;-146.77;100.00
55410;BME280;41279;43.546;16.426;2022-07-23T04:07:58;56765.13;;;-146.77;100.00
55410;BME280;41279;43.546;16.426;2022-07-23T04:10:23;56432.44;;;-146.77;100.00
55410;BME280;41279;43.546;16.426;2022-07-23T04:12:49;56330.22;;;-146.77;100.00
55410;BME280;41279;43.546;16.426;2022-07-23T04:15:14;55793.19;;;-146.77;100.00
55410;BME280;41279;43.546;16.426;2022-07-23T04:17:39;55460.59;;;-146.77;100.00
55410;BME280;41279;43.546;16.426;2022-07-23T04:20:05;55556.75;;;-146.77;100.00
55410;BME280;41279;43.546;16.426;2022-07-23T04:22:30;55280.28;;;-146.77;100.00
55410;BME280;41279;43.546;16.426;2022-07-23T04:24:56;55422.53;;;-146.77;100.00
55410;BME280;41279;43.546;16.426;2022-07-23T04:27:21;55250.22;;;-146.77;100.00
55410;BME280;41279;43.546;16.426;2022-07-23T04:29:47;54879.59;;;-146.77;100.00
55410;BME280;41279;43.546;16.426;2022-07-23T04:32:12;54334.75;;;-146.77;96.28
55410;BME280;41279;43.546;16.426;2022-07-23T04:34:37;54136.44;;;-146.77;91.33
55410;BME280;41279;43.546;16.426;2022-07-23T04:37:03;53944.16;;;-146.77;87.96
55410;BME280;41279;43.546;16.426;2022-07-23T04:39:28;53884.09;;;-146.77;88.33
55410;BME280;41279;43.546;16.426;2022-07-23T04:41:53;53930.16;;;-146.77;85.93
55410;BME280;41279;43.546;16.426;2022-07-23T04:44:19;53922.13;;;-146.77;89.23
55410;BME280;41279;43.546;16.426;2022-07-23T04:46:44;53938.16;;;-146.77;86.50
55410;BME280;41279;43.546;16.426;2022-07-23T04:49:09;53976.22;;;-146.77;81.93
55410;BME280;41279;43.546;16.426;2022-07-23T04:51:35;54056.31;;;-146.77;79.92
55410;BME280;41279;43.546;16.426;2022-07-23T04:54:00;54128.44;;;-146.77;81.29
55410;BME280;41279;43.546;16.426;2022-07-23T04:56:26;54208.56;;;-146.77;80.14
55410;BME280;41279;43.546;16.426;2022-07-23T04:58:51;54172.50;;;-146.77;79.66
55410;BME280;41279;43.546;16.426;2022-07-23T05:01:16;54234.59;;;-146.77;81.55
55410;BME280;41279;43.546;16.426;2022-07-23T05:03:42;54234.59;;;-146.77;81.62
55410;BME280;41279;43.546;16.426;2022-07-23T05:08:29;54316.72;;;-146.77;81.41
55410;BME280;41279;43.546;16.426;2022-07-23T05:11:01;54208.56;;;-146.77;77.47
55410;BME280;41279;43.546;16.426;2022-07-23T05:13:26;54320.72;;;-146.77;78.88
55410;BME280;41279;43.546;16.426;2022-07-23T05:15:52;54056.31;;;-146.77;75.56
55410;BME280;41279;43.546;16.426;2022-07-23T05:18:17;54392.81;;;-146.77;86.99
55410;BME280;41279;43.546;16.426;2022-07-23T05:20:42;54496.97;;;-146.77;89.19
55410;BME280;41279;43.546;16.426;2022-07-23T05:23:08;54370.78;;;-146.77;82.07
55410;BME280;41279;43.546;16.426;2022-07-23T05:25:33;54348.75;;;-146.77;79.57
55410;BME280;41279;43.546;16.426;2022-07-23T05:27:59;54228.56;;;-146.77;77.96
55410;BME280;41279;43.546;16.426;2022-07-23T05:30:24;54186.50;;;-146.77;77.56
55410;BME280;41279;43.546;16.426;2022-07-23T05:32:49;54156.47;;;-146.77;77.19
55410;BME280;41279;43.546;16.426;2022-07-23T05:35:15;54076.34;;;-146.77;76.95
55410;BME280;41279;43.546;16.426;2022-07-23T05:37:41;54082.38;;;-146.77;75.74
55410;BME280;41279;43.546;16.426;2022-07-23T05:40:08;54152.47;;;-146.77;73.21
55410;BME280;41279;43.546;16.426;2022-07-23T05:42:35;54060.34;;;-146.77;72.17
55410;BME280;41279;43.546;16.426;2022-07-23T05:45:01;53948.19;;;-146.77;72.95
55410;BME280;41279;43.546;16.426;2022-07-23T05:47:26;53864.06;;;-146.77;70.91
55410;BME280;41279;43.546;16.426;2022-07-23T05:49:51;53880.09;;;-146.77;69.13
55410;BME280;41279;43.546;16.426;2022-07-23T05:52:17;53868.06;;;-146.77;68.93
55410;BME280;41279;43.546;16.426;2022-07-23T05:54:42;53896.09;;;-146.77;74.38
55410;BME280;41279;43.546;16.426;2022-07-23T05:57:08;54008.25;;;-146.77;71.87
55410;BME280;41279;43.546;16.426;2022-07-23T05:59:33;54108.41;;;-146.77;72.32
55410;BME280;41279;43.546;16.426;2022-07-23T06:01:58;54216.56;;;-146.77;71.25
55410;BME280;41279;43.546;16.426;2022-07-23T06:04:24;54316.72;;;-146.77;72.09
55410;BME280;41279;43.546;16.426;2022-07-23T06:06:49;54581.13;;;-146.77;77.36
55410;BME280;41279;43.546;16.426;2022-07-23T06:09:15;54719.34;;;-146.77;70.75
55410;BME280;41279;43.546;16.426;2022-07-23T06:11:40;54621.19;;;-146.77;73.82
55410;BME280;41279;43.546;16.426;2022-07-23T06:14:06;54631.19;;;-146.77;71.83
55410;BME280;41279;43.546;16.426;2022-07-23T06:16:31;54613.16;;;-146.77;73.36
55410;BME280;41279;43.546;16.426;2022-07-23T06:18:57;54681.28;;;-146.77;73.48
55410;BME280;41279;43.546;16.426;2022-07-23T06:21:22;54757.41;;;-146.77;75.70
55410;BME280;41279;43.546;16.426;2022-07-23T06:23:48;54867.56;;;-146.77;76.47
55410;BME280;41279;43.546;16.426;2022-07-23T06:26:13;54893.63;;;-146.77;73.41
55410;BME280;41279;43.546;16.426;2022-07-23T06:28:38;54925.66;;;-146.77;76.58
55410;BME280;41279;43.546;16.426;2022-07-23T06:31:04;55061.91;;;-146.77;78.62
55410;BME280;41279;43.546;16.426;2022-07-23T06:33:29;55214.16;;;-146.77;76.27
55410;BME280;41279;43.546;16.426;2022-07-23T06:35:54;55013.81;;;-146.77;76.25
55410;BME280;41279;43.546;16.426;2022-07-23T06:38:20;55230.19;;;-146.77;78.48
55410;BME280;41279;43.546;16.426;2022-07-23T06:40:45;55410.50;;;-146.77;82.11
55410;BME280;41279;43.546;16.426;2022-07-23T06:43:11;55234.19;;;-146.77;85.92
55410;BME280;41279;43.546;16.426;2022-07-23T06:45:36;55264.25;;;-146.77;90.66
55410;BME280;41279;43.546;16.426;2022-07-23T06:48:02;55534.72;;;-146.77;93.19
55410;BME280;41279;43.546;16.426;2022-07-23T06:50:28;55578.81;;;-146.77;95.00
55410;BME280;41279;43.546;16.426;2022-07-23T06:52:54;55843.28;;;-146.77;97.74
55410;BME280;41279;43.546;16.426;2022-07-23T06:55:19;56197.97;;;-146.77;100.00
55410;BME280;41279;43.546;16.426;2022-07-23T06:57:44;56979.59;;;-146.77;100.00
55410;BME280;41279;43.546;16.426;2022-07-23T07:00:10;56576.75;;;-146.77;100.00
55410;BME280;41279;43.546;16.426;2022-07-23T07:02:36;57214.09;;;-146.77;100.00
55410;BME280;41279;43.546;16.426;2022-07-23T07:05:02;57264.22;;;-146.77;100.00
55410;BME280;41279;43.546;16.426;2022-07-23T07:07:27;58260.56;;;-146.77;100.00
55410;BME280;41279;43.546;16.426;2022-07-23T07:09:53;59002.50;;;-146.77;100.00
55410;BME280;41279;43.546;16.426;2022-07-23T07:12:18;59736.53;;;-146.77;100.00
55410;BME280;41279;43.546;16.426;2022-07-23T07:14:44;60835.81;;;-146.77;100.00
55410;BME280;41279;43.546;16.426;2022-07-23T07:17:09;60474.69;;;-146.77;100.00
55410;BME280;41279;43.546;16.426;2022-07-23T07:19:36;62065.88;;;-146.77;100.00
55410;BME280;41279;43.546;16.426;2022-07-23T07:22:01;62130.09;;;-146.77;100.00
55410;BME280;41279;43.546;16.426;2022-07-23T07:24:27;61847.13;;;-146.77;100.00
55410;BME280;41279;43.546;16.426;2022-07-23T07:26:52;62595.72;;;-146.77;100.00
55410;BME280;41279;43.546;16.426;2022-07-23T07:29:17;62786.41;;;-146.77;100.00
55410;BME280;41279;43.546;16.426;2022-07-23T07:31:43;64450.78;;;-146.77;100.00
55410;BME280;41279;43.546;16.426;2022-07-23T07:34:08;62892.78;;;-146.77;100.00
55410;BME280;41279;43.546;16.426;2022-07-23T07:36:34;62692.06;;;-146.77;100.00
55410;BME280;41279;43.546;16.426;2022-07-23T07:39:03;60564.97;;;-146.77;100.00
55410;BME280;41279;43.546;16.426;2022-07-23T07:41:28;58068.09;;;-146.77;100.00
55410;BME280;41279;43.546;16.426;2022-07-23T07:43:53;56454.47;;;-146.77;90.88
55410;BME280;41279;43.546;16.426;2022-07-23T07:46:19;55498.66;;;-146.77;79.59
55410;BME280;41279;43.546;16.426;2022-07-23T07:48:44;55564.78;;;-146.77;83.73
55410;BME280;41279;43.546;16.426;2022-07-23T07:51:10;55929.44;;;-146.77;85.12
55410;BME280;41279;43.546;16.426;2022-07-23T07:53:35;56308.19;;;-146.77;86.05
55410;BME280;41279;43.546;16.426;2022-07-23T07:56:00;55775.16;;;-146.77;75.52
55410;BME280;41279;43.546;16.426;2022-07-23T07:58:26;55616.88;;;-146.77;76.03
55410;BME280;41279;43.546;16.426;2022-07-23T08:00:51;55743.09;;;-146.77;71.27
55410;BME280;41279;43.546;16.426;2022-07-23T08:03:17;56344.25;;;-146.77;79.63
55410;BME280;41279;43.546;16.426;2022-07-23T08:05:42;56775.16;;;-146.77;84.30
55410;BME280;41279;43.546;16.426;2022-07-23T08:08:08;56731.06;;;-146.77;93.09
55410;BME280;41279;43.546;16.426;2022-07-23T08:10:35;56199.97;;;-146.77;87.59
55410;BME280;41279;43.546;16.426;2022-07-23T08:13:01;55186.09;;;-146.77;78.24
55410;BME280;41279;43.546;16.426;2022-07-23T08:15:28;55144.03;;;-146.77;75.74
55410;BME280;41279;43.546;16.426;2022-07-23T08:17:54;55234.19;;;-146.77;76.06
55410;BME280;41279;43.546;16.426;2022-07-23T08:20:21;55602.84;;;-146.77;78.16
55410;BME280;41279;43.546;16.426;2022-07-23T08:25:16;55891.38;;;-146.77;81.55
55410;BME280;41279;43.546;16.426;2022-07-23T08:27:44;56883.38;;;-146.77;93.49
55410;BME280;41279;43.546;16.426;2022-07-23T08:30:10;56911.44;;;-146.77;92.39
55410;BME280;41279;43.546;16.426;2022-07-23T08:33:02;57288.28;;;-146.77;94.39
55410;BME280;41279;43.546;16.426;2022-07-23T08:35:32;58639.53;;;-146.77;100.00
55410;BME280;41279;43.546;16.426;2022-07-23T08:38:01;58731.78;;;-146.77;100.00
55410;BME280;41279;43.546;16.426;2022-07-23T08:40:28;57159.97;;;-146.77;91.94
55410;BME280;41279;43.546;16.426;2022-07-23T08:42:55;57162.00;;;-146.77;93.88
55410;BME280;41279;43.546;16.426;2022-07-23T08:45:22;57657.13;;;-146.77;99.39
55410;BME280;41279;43.546;16.426;2022-07-23T08:47:56;57859.59;;;-146.77;100.00
55410;BME280;41279;43.546;16.426;2022-07-23T08:50:24;57741.31;;;-146.77;100.00
55410;BME280;41279;43.546;16.426;2022-07-23T08:52:50;57422.56;;;-146.77;100.00
55410;BME280;41279;43.546;16.426;2022-07-23T08:55:17;56833.28;;;-146.77;97.23
55410;BME280;41279;43.546;16.426;2022-07-23T08:57:44;56572.72;;;-146.77;93.08
55410;BME280;41279;43.546;16.426;2022-07-23T09:00:11;56540.66;;;-146.77;91.70
55410;BME280;41279;43.546;16.426;2022-07-23T09:02:41;56500.59;;;-146.77;94.13
55410;BME280;41279;43.546;16.426;2022-07-23T09:05:08;55919.44;;;-146.77;89.12
55410;BME280;41279;43.546;16.426;2022-07-23T09:07:33;56735.06;;;-146.77;94.67
55410;BME280;41279;43.546;16.426;2022-07-23T09:10:10;56151.88;;;-146.77;88.55
55410;BME280;41279;43.546;16.426;2022-07-23T09:12:37;56083.75;;;-146.77;88.58
55410;BME280;41279;43.546;16.426;2022-07-23T09:15:07;56949.53;;;-146.77;92.91
55410;BME280;41279;43.546;16.426;2022-07-23T09:17:41;57755.34;;;-146.77;100.00
55410;BME280;41279;43.546;16.426;2022-07-23T09:20:12;57298.28;;;-146.77;97.73
55410;BME280;41279;43.546;16.426;2022-07-23T09:22:38;56402.38;;;-146.77;88.34
55410;BME280;41279;43.546;16.426;2022-07-23T09:25:31;56208.00;;;-146.77;86.09
55410;BME280;41279;43.546;16.426;2022-07-23T09:27:58;55500.66;;;-146.77;78.89
55410;BME280;41279;43.546;16.426;2022-07-23T09:30:30;55432.53;;;-146.77;79.02
55410;BME280;41279;43.546;16.426;2022-07-23T09:33:10;54583.13;;;-146.77;71.25
55410;BME280;41279;43.546;16.426;2022-07-23T09:35:51;54244.59;;;-146.77;61.28
55410;BME280;41279;43.546;16.426;2022-07-23T09:38:18;54408.84;;;-146.77;62.76
55410;BME280;41279;43.546;16.426;2022-07-23T09:40:44;54639.22;;;-146.77;65.38
55410;BME280;41279;43.546;16.426;2022-07-23T09:43:12;54691.28;;;-146.77;65.00
55410;BME280;41279;43.546;16.426;2022-07-23T09:45:37;54581.13;;;-146.77;65.29
55410;BME280;41279;43.546;16.426;2022-07-23T09:48:16;55027.84;;;-146.77;73.36
55410;BME280;41279;43.546;16.426;2022-07-23T09:50:42;55200.13;;;-146.77;76.97
55410;BME280;41279;43.546;16.426;2022-07-23T09:53:08;55111.97;;;-146.77;76.40
55410;BME280;41279;43.546;16.426;2022-07-23T09:55:35;55322.34;;;-146.77;76.93
55410;BME280;41279;43.546;16.426;2022-07-23T09:58:03;54827.50;;;-146.77;70.00
55410;BME280;41279;43.546;16.426;2022-07-23T10:00:30;54789.44;;;-146.77;71.41
55410;BME280;41279;43.546;16.426;2022-07-23T10:02:57;55065.91;;;-146.77;73.44
55410;BME280;41279;43.546;16.426;2022-07-23T10:05:24;55356.41;;;-146.77;76.90
55410;BME280;41279;43.546;16.426;2022-07-23T10:07:50;55003.78;;;-146.77;70.65
55410;BME280;41279;43.546;16.426;2022-07-23T10:10:17;55186.09;;;-146.77;67.95
55410;BME280;41279;43.546;16.426;2022-07-23T10:12:43;55009.81;;;-146.77;60.54
55410;BME280;41279;43.546;16.426;2022-07-23T10:15:09;54601.16;;;-146.77;53.23
55410;BME280;41279;43.546;16.426;2022-07-23T10:17:35;54873.59;;;-146.77;56.91
55410;BME280;41279;43.546;16.426;2022-07-23T10:20:02;54939.69;;;-146.77;57.85
55410;BME280;41279;43.546;16.426;2022-07-23T10:22:33;54863.56;;;-146.77;60.35
55410;BME280;41279;43.546;16.426;2022-07-23T10:31:14;55067.91;;;-146.77;70.32
55410;BME280;41279;43.546;16.426;2022-07-23T10:33:57;54803.47;;;-146.77;64.97
55410;BME280;41279;43.546;16.426;2022-07-23T10:36:32;54751.38;;;-146.77;65.22
55410;BME280;41279;43.546;16.426;2022-07-23T10:39:24;55105.97;;;-146.77;66.17
55410;BME280;41279;43.546;16.426;2022-07-23T10:41:50;54645.22;;;-146.77;58.88
55410;BME280;41279;43.546;16.426;2022-07-23T10:44:21;54733.34;;;-146.77;63.98
55410;BME280;41279;43.546;16.426;2022-07-23T10:47:04;54969.75;;;-146.77;63.17
55410;BME280;41279;43.546;16.426;2022-07-23T10:49:48;55342.38;;;-146.77;67.49
55410;BME280;41279;43.546;16.426;2022-07-23T10:57:13;54825.50;;;-146.77;62.49
55410;BME280;41279;43.546;16.426;2022-07-23T11:02:34;54723.34;;;-146.77;58.79
55410;BME280;41279;43.546;16.426;2022-07-23T11:05:04;55392.47;;;-146.77;74.74
55410;BME280;41279;43.546;16.426;2022-07-23T11:07:29;55558.75;;;-146.77;75.63
55410;BME280;41279;43.546;16.426;2022-07-23T11:09:55;55456.56;;;-146.77;73.91
55410;BME280;41279;43.546;16.426;2022-07-23T11:20:19;55228.19;;;-146.77;67.08
55410;BME280;41279;43.546;16.426;2022-07-23T11:25:12;55146.03;;;-146.77;68.59
55410;BME280;41279;43.546;16.426;2022-07-23T11:27:42;55510.69;;;-146.77;71.75
55410;BME280;41279;43.546;16.426;2022-07-23T11:30:09;55398.47;;;-146.77;71.14
55410;BME280;41279;43.546;16.426;2022-07-23T11:32:40;55055.88;;;-146.77;67.41
55410;BME280;41279;43.546;16.426;2022-07-23T11:35:20;55033.84;;;-146.77;64.56
55410;BME280;41279;43.546;16.426;2022-07-23T11:37:47;55124.00;;;-146.77;66.46
55410;BME280;41279;43.546;16.426;2022-07-23T11:40:15;55546.75;;;-146.77;70.03
55410;BME280;41279;43.546;16.426;2022-07-23T11:43:26;55001.78;;;-146.77;62.37
55410;BME280;41279;43.546;16.426;2022-07-23T11:46:09;55009.81;;;-146.77;61.61
55410;BME280;41279;43.546;16.426;2022-07-23T11:48:31;54557.06;;;-146.77;53.22
55410;BME280;41279;43.546;16.426;2022-07-23T11:50:58;54448.91;;;-146.77;50.84
55410;BME280;41279;43.546;16.426;2022-07-23T11:53:27;54569.09;;;-146.77;48.06
55410;BME280;41279;43.546;16.426;2022-07-23T11:55:53;54412.84;;;-146.77;46.61
55410;BME280;41279;43.546;16.426;2022-07-23T11:58:20;54701.31;;;-146.77;54.85
55410;BME280;41279;43.546;16.426;2022-07-23T12:00:46;54965.72;;;-146.77;57.79
55410;BME280;41279;43.546;16.426;2022-07-23T12:03:11;54737.38;;;-146.77;49.42
55410;BME280;41279;43.546;16.426;2022-07-23T12:05:38;54807.47;;;-146.77;51.80
55410;BME280;41279;43.546;16.426;2022-07-23T12:08:08;54805.47;;;-146.77;53.31
55410;BME280;41279;43.546;16.426;2022-07-23T12:10:40;54869.56;;;-146.77;54.88
55410;BME280;41279;43.546;16.426;2022-07-23T12:13:14;54925.66;;;-146.77;54.61
55410;BME280;41279;43.546;16.426;2022-07-23T12:15:43;54985.78;;;-146.77;59.31
55410;BME280;41279;43.546;16.426;2022-07-23T12:18:11;55126.00;;;-146.77;57.31
55410;BME280;41279;43.546;16.426;2022-07-23T12:20:40;54595.13;;;-146.77;54.05
55410;BME280;41279;43.546;16.426;2022-07-23T12:23:08;54725.34;;;-146.77;59.46
55410;BME280;41279;43.546;16.426;2022-07-23T12:25:39;54781.44;;;-146.77;54.81
55410;BME280;41279;43.546;16.426;2022-07-23T12:28:07;55484.63;;;-146.77;65.91
55410;BME280;41279;43.546;16.426;2022-07-23T12:33:11;55198.13;;;-146.77;69.06
55410;BME280;41279;43.546;16.426;2022-07-23T12:35:39;55594.84;;;-146.77;73.71
55410;BME280;41279;43.546;16.426;2022-07-23T12:38:14;55248.22;;;-146.77;68.61
55410;BME280;41279;43.546;16.426;2022-07-23T12:45:46;55053.88;;;-146.77;65.19
55410;BME280;41279;43.546;16.426;2022-07-23T12:48:36;54845.53;;;-146.77;64.65
55410;BME280;41279;43.546;16.426;2022-07-23T12:51:07;54328.72;;;-146.77;52.55
55410;BME280;41279;43.546;16.426;2022-07-23T12:53:41;54354.75;;;-146.77;52.31
55410;BME280;41279;43.546;16.426;2022-07-23T12:56:13;54593.13;;;-146.77;58.68
55410;BME280;41279;43.546;16.426;2022-07-23T13:06:33;54256.63;;;-146.77;57.99
55410;BME280;41279;43.546;16.426;2022-07-23T13:08:59;54641.22;;;-146.77;67.01
55410;BME280;41279;43.546;16.426;2022-07-23T13:11:25;54613.16;;;-146.77;67.96